sensor_id;sensor_type;location;lat;lon;timestamp;P1;durP1;ratioP1;P2;durP2;ratioP2
20462;SDS011;10390;53.566;9.980;2024-02-23T00:01:49;6.60;;;5.90;;
20462;SDS011;10390;53.566;9.980;2024-02-23T00:04:15;5.90;;;5.25;;
20462;SDS011;10390;53.566;9.980;2024-02-23T00:06:41;5.82;;;5.00;;
20462;SDS011;10390;53.566;9.980;2024-02-23T00:09:06;6.10;;;5.32;;
20462;SDS011;10390;53.566;9.980;2024-02-23T00:11:32;6.25;;;5.40;;
20462;SDS011;10390;53.566;9.980;2024-02-23T00:13:58;6.57;;;5.47;;
20462;SDS011;10390;53.566;9.980;2024-02-23T00:16:24;6.95;;;5.38;;
20462;SDS011;10390;53.566;9.980;2024-02-23T00:18:51;6.22;;;5.63;;
20462;SDS011;10390;53.566;9.980;2024-02-23T00:21:17;6.63;;;6.00;;
20462;SDS011;10390;53.566;9.980;2024-02-23T00:23:43;7.22;;;5.60;;
20462;SDS011;10390;53.566;9.980;2024-02-23T00:26:08;7.28;;;5.50;;
20462;SDS011;10390;53.566;9.980;2024-02-23T00:28:34;5.53;;;4.90;;
20462;SDS011;10390;53.566;9.980;2024-02-23T00:31:00;6.68;;;5.38;;
20462;SDS011;10390;53.566;9.980;2024-02-23T00:33:25;5.40;;;4.80;;
20462;SDS011;10390;53.566;9.980;2024-02-23T00:35:51;5.97;;;5.00;;
20462;SDS011;10390;53.566;9.980;2024-02-23T00:38:17;6.45;;;5.68;;
20462;SDS011;10390;53.566;9.980;2024-02-23T00:40:42;6.00;;;5.40;;
20462;SDS011;10390;53.566;9.980;2024-02-23T00:43:08;6.75;;;5.82;;
20462;SDS011;10390;53.566;9.980;2024-02-23T00:45:33;6.63;;;5.95;;
20462;SDS011;10390;53.566;9.980;2024-02-23T00:47:59;7.93;;;5.70;;
20462;SDS011;10390;53.566;9.980;2024-02-23T00:50:25;5.60;;;5.10;;
20462;SDS011;10390;53.566;9.980;2024-02-23T00:52:52;5.70;;;5.10;;
20462;SDS011;10390;53.566;9.980;2024-02-23T00:55:18;5.90;;;5.30;;
20462;SDS011;10390;53.566;9.980;2024-02-23T00:57:44;6.05;;;5.38;;
20462;SDS011;10390;53.566;9.980;2024-02-23T01:00:10;6.60;;;5.75;;
20462;SDS011;10390;53.566;9.980;2024-02-23T01:02:37;6.60;;;5.90;;
20462;SDS011;10390;53.566;9.980;2024-02-23T01:05:03;6.50;;;5.80;;
20462;SDS011;10390;53.566;9.980;2024-02-23T01:07:29;5.55;;;4.95;;
20462;SDS011;10390;53.566;9.980;2024-02-23T01:09:55;5.97;;;5.18;;
20462;SDS011;10390;53.566;9.980;2024-02-23T01:12:21;6.63;;;4.70;;
20462;SDS011;10390;53.566;9.980;2024-02-23T01:14:47;6.00;;;5.40;;
20462;SDS011;10390;53.566;9.980;2024-02-23T01:17:13;5.90;;;5.30;;
20462;SDS011;10390;53.566;9.980;2024-02-23T01:19:40;5.63;;;5.03;;
20462;SDS011;10390;53.566;9.980;2024-02-23T01:22:07;6.10;;;5.50;;
20462;SDS011;10390;53.566;9.980;2024-02-23T01:24:33;5.60;;;5.07;;
20462;SDS011;10390;53.566;9.980;2024-02-23T01:26:58;5.20;;;4.60;;
20462;SDS011;10390;53.566;9.980;2024-02-23T01:29:24;6.00;;;5.40;;
20462;SDS011;10390;53.566;9.980;2024-02-23T01:31:51;5.78;;;4.72;;
20462;SDS011;10390;53.566;9.980;2024-02-23T01:34:17;5.80;;;5.20;;
20462;SDS011;10390;53.566;9.980;2024-02-23T01:36:43;6.22;;;5.63;;
20462;SDS011;10390;53.566;9.980;2024-02-23T01:39:08;5.97;;;5.38;;
20462;SDS011;10390;53.566;9.980;2024-02-23T01:41:35;5.78;;;5.18;;
20462;SDS011;10390;53.566;9.980;2024-02-23T01:44:00;5.80;;;5.20;;
20462;SDS011;10390;53.566;9.980;2024-02-23T01:46:26;5.82;;;5.30;;
20462;SDS011;10390;53.566;9.980;2024-02-23T01:48:52;6.30;;;5.13;;
20462;SDS011;10390;53.566;9.980;2024-02-23T01:51:18;6.40;;;5.80;;
20462;SDS011;10390;53.566;9.980;2024-02-23T01:53:44;6.13;;;5.53;;
20462;SDS011;10390;53.566;9.980;2024-02-23T01:56:10;6.15;;;5.32;;
20462;SDS011;10390;53.566;9.980;2024-02-23T01:58:36;6.00;;;5.40;;
20462;SDS011;10390;53.566;9.980;2024-02-23T02:01:03;6.03;;;5.43;;
20462;SDS011;10390;53.566;9.980;2024-02-23T02:03:28;5.82;;;5.22;;
20462;SDS011;10390;53.566;9.980;2024-02-23T02:05:54;6.28;;;5.68;;
20462;SDS011;10390;53.566;9.980;2024-02-23T02:08:23;7.25;;;5.90;;
20462;SDS011;10390;53.566;9.980;2024-02-23T02:10:50;6.20;;;5.60;;
20462;SDS011;10390;53.566;9.980;2024-02-23T02:13:16;6.10;;;5.50;;
20462;SDS011;10390;53.566;9.980;2024-02-23T02:15:41;6.25;;;5.65;;
20462;SDS011;10390;53.566;9.980;2024-02-23T02:18:08;5.88;;;5.28;;
20462;SDS011;10390;53.566;9.980;2024-02-23T02:20:34;6.25;;;5.40;;
20462;SDS011;10390;53.566;9.980;2024-02-23T02:23:02;6.30;;;5.70;;
20462;SDS011;10390;53.566;9.980;2024-02-23T02:25:28;6.43;;;5.80;;
20462;SDS011;10390;53.566;9.980;2024-02-23T02:27:53;6.13;;;5.35;;
20462;SDS011;10390;53.566;9.980;2024-02-23T02:30:19;6.07;;;5.47;;
20462;SDS011;10390;53.566;9.980;2024-02-23T02:32:44;6.22;;;5.63;;
20462;SDS011;10390;53.566;9.980;2024-02-23T02:35:10;6.88;;;5.68;;
20462;SDS011;10390;53.566;9.980;2024-02-23T02:37:39;6.85;;;6.15;;
20462;SDS011;10390;53.566;9.980;2024-02-23T02:40:05;6.88;;;6.18;;
20462;SDS011;10390;53.566;9.980;2024-02-23T02:42:32;6.28;;;5.68;;
20462;SDS011;10390;53.566;9.980;2024-02-23T02:44:58;6.40;;;5.80;;
20462;SDS011;10390;53.566;9.980;2024-02-23T02:47:23;6.55;;;5.90;;
20462;SDS011;10390;53.566;9.980;2024-02-23T02:49:49;7.10;;;6.13;;
20462;SDS011;10390;53.566;9.980;2024-02-23T02:52:16;7.20;;;6.50;;
20462;SDS011;10390;53.566;9.980;2024-02-23T02:54:41;7.15;;;6.43;;
20462;SDS011;10390;53.566;9.980;2024-02-23T02:57:07;6.82;;;6.13;;
20462;SDS011;10390;53.566;9.980;2024-02-23T02:59:36;6.88;;;6.18;;
20462;SDS011;10390;53.566;9.980;2024-02-23T03:02:01;6.13;;;5.53;;
20462;SDS011;10390;53.566;9.980;2024-02-23T03:04:27;6.47;;;5.55;;
20462;SDS011;10390;53.566;9.980;2024-02-23T03:06:52;7.07;;;6.38;;
20462;SDS011;10390;53.566;9.980;2024-02-23T03:09:18;6.47;;;5.80;;
20462;SDS011;10390;53.566;9.980;2024-02-23T03:11:44;6.47;;;5.65;;
20462;SDS011;10390;53.566;9.980;2024-02-23T03:14:09;6.97;;;5.82;;
20462;SDS011;10390;53.566;9.980;2024-02-23T03:16:35;6.47;;;5.80;;
20462;SDS011;10390;53.566;9.980;2024-02-23T03:19:02;6.30;;;5.70;;
20462;SDS011;10390;53.566;9.980;2024-02-23T03:21:28;6.20;;;5.60;;
20462;SDS011;10390;53.566;9.980;2024-02-23T03:23:54;6.28;;;5.53;;
20462;SDS011;10390;53.566;9.980;2024-02-23T03:26:19;7.57;;;5.75;;
20462;SDS011;10390;53.566;9.980;2024-02-23T03:28:45;6.88;;;5.85;;
20462;SDS011;10390;53.566;9.980;2024-02-23T03:31:10;7.63;;;5.50;;
20462;SDS011;10390;53.566;9.980;2024-02-23T03:33:36;6.30;;;5.35;;
20462;SDS011;10390;53.566;9.980;2024-02-23T03:36:02;6.13;;;5.18;;
20462;SDS011;10390;53.566;9.980;2024-02-23T03:38:28;5.80;;;5.18;;
20462;SDS011;10390;53.566;9.980;2024-02-23T03:40:55;6.32;;;5.15;;
20462;SDS011;10390;53.566;9.980;2024-02-23T03:43:21;6.43;;;5.35;;
20462;SDS011;10390;53.566;9.980;2024-02-23T03:45:46;6.47;;;5.80;;
20462;SDS011;10390;53.566;9.980;2024-02-23T03:48:12;6.18;;;5.47;;
20462;SDS011;10390;53.566;9.980;2024-02-23T03:50:38;6.40;;;5.32;;
20462;SDS011;10390;53.566;9.980;2024-02-23T03:53:04;6.32;;;5.45;;
20462;SDS011;10390;53.566;9.980;2024-02-23T03:55:29;6.25;;;5.57;;
20462;SDS011;10390;53.566;9.980;2024-02-23T03:57:55;5.90;;;5.20;;
20462;SDS011;10390;53.566;9.980;2024-02-23T04:00:20;6.32;;;5.35;;
20462;SDS011;10390;53.566;9.980;2024-02-23T04:02:48;5.80;;;5.20;;
20462;SDS011;10390;53.566;9.980;2024-02-23T04:05:14;5.60;;;4.97;;
20462;SDS011;10390;53.566;9.980;2024-02-23T04:07:40;6.47;;;5.82;;
20462;SDS011;10390;53.566;9.980;2024-02-23T04:10:05;6.00;;;5.38;;
20462;SDS011;10390;53.566;9.980;2024-02-23T04:12:31;6.50;;;5.85;;
20462;SDS011;10390;53.566;9.980;2024-02-23T04:14:57;7.07;;;5.82;;
20462;SDS011;10390;53.566;9.980;2024-02-23T04:17:23;5.97;;;5.38;;
20462;SDS011;10390;53.566;9.980;2024-02-23T04:19:49;5.60;;;4.97;;
20462;SDS011;10390;53.566;9.980;2024-02-23T04:22:14;6.05;;;5.18;;
20462;SDS011;10390;53.566;9.980;2024-02-23T04:24:40;5.80;;;5.05;;
20462;SDS011;10390;53.566;9.980;2024-02-23T04:27:07;5.30;;;4.80;;
20462;SDS011;10390;53.566;9.980;2024-02-23T04:29:33;5.97;;;5.38;;
20462;SDS011;10390;53.566;9.980;2024-02-23T04:31:59;5.93;;;5.32;;
20462;SDS011;10390;53.566;9.980;2024-02-23T04:34:25;5.28;;;4.78;;
20462;SDS011;10390;53.566;9.980;2024-02-23T04:36:51;5.80;;;5.07;;
20462;SDS011;10390;53.566;9.980;2024-02-23T04:39:16;5.00;;;4.50;;
20462;SDS011;10390;53.566;9.980;2024-02-23T04:41:42;5.80;;;5.20;;
20462;SDS011;10390;53.566;9.980;2024-02-23T04:44:08;5.22;;;4.60;;
20462;SDS011;10390;53.566;9.980;2024-02-23T04:46:33;6.05;;;4.78;;
20462;SDS011;10390;53.566;9.980;2024-02-23T04:48:59;5.95;;;5.35;;
20462;SDS011;10390;53.566;9.980;2024-02-23T04:51:25;5.60;;;5.07;;
20462;SDS011;10390;53.566;9.980;2024-02-23T04:53:52;5.63;;;5.03;;
20462;SDS011;10390;53.566;9.980;2024-02-23T04:56:17;5.70;;;4.90;;
20462;SDS011;10390;53.566;9.980;2024-02-23T04:58:43;5.72;;;5.18;;
20462;SDS011;10390;53.566;9.980;2024-02-23T05:01:09;5.70;;;4.80;;
20462;SDS011;10390;53.566;9.980;2024-02-23T05:03:36;5.65;;;5.05;;
20462;SDS011;10390;53.566;9.980;2024-02-23T05:06:02;5.15;;;4.60;;
20462;SDS011;10390;53.566;9.980;2024-02-23T05:08:28;5.78;;;5.28;;
20462;SDS011;10390;53.566;9.980;2024-02-23T05:10:55;5.82;;;5.22;;
20462;SDS011;10390;53.566;9.980;2024-02-23T05:13:21;6.28;;;5.68;;
20462;SDS011;10390;53.566;9.980;2024-02-23T05:15:47;5.75;;;5.18;;
20462;SDS011;10390;53.566;9.980;2024-02-23T05:18:12;6.45;;;5.22;;
20462;SDS011;10390;53.566;9.980;2024-02-23T05:20:38;5.60;;;5.10;;
20462;SDS011;10390;53.566;9.980;2024-02-23T05:23:04;6.20;;;5.60;;
20462;SDS011;10390;53.566;9.980;2024-02-23T05:25:29;5.20;;;4.53;;
20462;SDS011;10390;53.566;9.980;2024-02-23T05:27:55;5.30;;;4.80;;
20462;SDS011;10390;53.566;9.980;2024-02-23T05:30:20;5.78;;;5.18;;
20462;SDS011;10390;53.566;9.980;2024-02-23T05:32:47;5.85;;;5.22;;
20462;SDS011;10390;53.566;9.980;2024-02-23T05:35:12;6.03;;;5.03;;
20462;SDS011;10390;53.566;9.980;2024-02-23T05:37:38;5.10;;;4.18;;
20462;SDS011;10390;53.566;9.980;2024-02-23T05:40:04;6.10;;;5.50;;
20462;SDS011;10390;53.566;9.980;2024-02-23T05:42:35;5.70;;;5.10;;
20462;SDS011;10390;53.566;9.980;2024-02-23T05:45:03;5.70;;;5.20;;
20462;SDS011;10390;53.566;9.980;2024-02-23T05:47:30;5.60;;;4.97;;
20462;SDS011;10390;53.566;9.980;2024-02-23T05:49:56;5.30;;;4.80;;
20462;SDS011;10390;53.566;9.980;2024-02-23T05:52:21;5.32;;;4.72;;
20462;SDS011;10390;53.566;9.980;2024-02-23T05:54:47;5.28;;;4.78;;
20462;SDS011;10390;53.566;9.980;2024-02-23T05:57:13;6.18;;;5.10;;
20462;SDS011;10390;53.566;9.980;2024-02-23T05:59:38;6.13;;;5.53;;
20462;SDS011;10390;53.566;9.980;2024-02-23T06:02:04;7.20;;;5.43;;
20462;SDS011;10390;53.566;9.980;2024-02-23T06:04:30;6.32;;;5.72;;
20462;SDS011;10390;53.566;9.980;2024-02-23T06:06:56;6.03;;;5.30;;
20462;SDS011;10390;53.566;9.980;2024-02-23T06:09:22;7.60;;;5.47;;
20462;SDS011;10390;53.566;9.980;2024-02-23T06:11:47;6.55;;;5.53;;
20462;SDS011;10390;53.566;9.980;2024-02-23T06:14:13;6.15;;;5.32;;
20462;SDS011;10390;53.566;9.980;2024-02-23T06:16:39;7.28;;;6.50;;
20462;SDS011;10390;53.566;9.980;2024-02-23T06:19:05;6.95;;;5.65;;
20462;SDS011;10390;53.566;9.980;2024-02-23T06:21:31;7.10;;;6.07;;
20462;SDS011;10390;53.566;9.980;2024-02-23T06:23:57;8.48;;;6.90;;
20462;SDS011;10390;53.566;9.980;2024-02-23T06:26:23;6.82;;;5.75;;
20462;SDS011;10390;53.566;9.980;2024-02-23T06:28:49;6.50;;;5.75;;
20462;SDS011;10390;53.566;9.980;2024-02-23T06:31:14;6.55;;;5.15;;
20462;SDS011;10390;53.566;9.980;2024-02-23T06:33:40;6.85;;;5.38;;
20462;SDS011;10390;53.566;9.980;2024-02-23T06:36:06;7.75;;;5.70;;
20462;SDS011;10390;53.566;9.980;2024-02-23T06:38:32;8.55;;;6.97;;
20462;SDS011;10390;53.566;9.980;2024-02-23T06:40:58;6.70;;;5.95;;
20462;SDS011;10390;53.566;9.980;2024-02-23T06:43:24;6.95;;;5.88;;
20462;SDS011;10390;53.566;9.980;2024-02-23T06:45:50;7.63;;;5.57;;
20462;SDS011;10390;53.566;9.980;2024-02-23T06:48:16;7.38;;;5.70;;
20462;SDS011;10390;53.566;9.980;2024-02-23T06:50:42;6.95;;;5.50;;
20462;SDS011;10390;53.566;9.980;2024-02-23T06:53:07;6.78;;;5.38;;
20462;SDS011;10390;53.566;9.980;2024-02-23T06:55:36;6.65;;;5.43;;
20462;SDS011;10390;53.566;9.980;2024-02-23T06:58:02;7.25;;;5.93;;
20462;SDS011;10390;53.566;9.980;2024-02-23T07:00:29;6.72;;;5.45;;
20462;SDS011;10390;53.566;9.980;2024-02-23T07:02:55;7.35;;;5.95;;
20462;SDS011;10390;53.566;9.980;2024-02-23T07:05:24;6.03;;;5.13;;
20462;SDS011;10390;53.566;9.980;2024-02-23T07:07:50;6.57;;;5.63;;
20462;SDS011;10390;53.566;9.980;2024-02-23T07:10:16;6.63;;;5.78;;
20462;SDS011;10390;53.566;9.980;2024-02-23T07:12:43;6.28;;;4.97;;
20462;SDS011;10390;53.566;9.980;2024-02-23T07:15:09;6.47;;;4.80;;
20462;SDS011;10390;53.566;9.980;2024-02-23T07:17:35;6.25;;;5.22;;
20462;SDS011;10390;53.566;9.980;2024-02-23T07:20:00;6.80;;;5.05;;
20462;SDS011;10390;53.566;9.980;2024-02-23T07:22:31;6.25;;;5.25;;
20462;SDS011;10390;53.566;9.980;2024-02-23T07:24:57;6.28;;;4.88;;
20462;SDS011;10390;53.566;9.980;2024-02-23T07:27:23;6.10;;;5.32;;
20462;SDS011;10390;53.566;9.980;2024-02-23T07:29:48;6.38;;;5.10;;
20462;SDS011;10390;53.566;9.980;2024-02-23T07:32:14;6.22;;;4.72;;
20462;SDS011;10390;53.566;9.980;2024-02-23T07:34:40;5.68;;;5.07;;
20462;SDS011;10390;53.566;9.980;2024-02-23T07:37:06;5.65;;;5.00;;
20462;SDS011;10390;53.566;9.980;2024-02-23T07:39:31;5.90;;;5.22;;
20462;SDS011;10390;53.566;9.980;2024-02-23T07:41:57;5.97;;;5.38;;
20462;SDS011;10390;53.566;9.980;2024-02-23T07:44:22;6.50;;;5.90;;
20462;SDS011;10390;53.566;9.980;2024-02-23T07:46:50;6.88;;;6.18;;
20462;SDS011;10390;53.566;9.980;2024-02-23T07:49:17;7.07;;;5.80;;
20462;SDS011;10390;53.566;9.980;2024-02-23T07:51:44;7.07;;;6.00;;
20462;SDS011;10390;53.566;9.980;2024-02-23T07:54:09;6.45;;;5.45;;
20462;SDS011;10390;53.566;9.980;2024-02-23T07:56:35;5.60;;;4.97;;
20462;SDS011;10390;53.566;9.980;2024-02-23T07:59:01;5.57;;;4.88;;
20462;SDS011;10390;53.566;9.980;2024-02-23T08:01:28;5.22;;;4.50;;
20462;SDS011;10390;53.566;9.980;2024-02-23T08:03:54;5.68;;;5.10;;
20462;SDS011;10390;53.566;9.980;2024-02-23T08:06:19;7.13;;;5.20;;
20462;SDS011;10390;53.566;9.980;2024-02-23T08:08:45;5.65;;;4.43;;
20462;SDS011;10390;53.566;9.980;2024-02-23T08:11:11;5.60;;;5.00;;
20462;SDS011;10390;53.566;9.980;2024-02-23T08:13:38;6.30;;;4.55;;
20462;SDS011;10390;53.566;9.980;2024-02-23T08:16:04;5.90;;;4.30;;
20462;SDS011;10390;53.566;9.980;2024-02-23T08:18:31;6.18;;;5.05;;
20462;SDS011;10390;53.566;9.980;2024-02-23T08:20:57;5.88;;;5.22;;
20462;SDS011;10390;53.566;9.980;2024-02-23T08:23:23;5.32;;;4.45;;
20462;SDS011;10390;53.566;9.980;2024-02-23T08:25:49;5.43;;;4.50;;
20462;SDS011;10390;53.566;9.980;2024-02-23T08:28:15;5.65;;;4.53;;
20462;SDS011;10390;53.566;9.980;2024-02-23T08:30:41;6.35;;;5.30;;
20462;SDS011;10390;53.566;9.980;2024-02-23T08:33:07;6.57;;;5.38;;
20462;SDS011;10390;53.566;9.980;2024-02-23T08:35:35;5.20;;;4.70;;
20462;SDS011;10390;53.566;9.980;2024-02-23T08:38:00;5.72;;;5.13;;
20462;SDS011;10390;53.566;9.980;2024-02-23T08:40:26;5.68;;;5.05;;
20462;SDS011;10390;53.566;9.980;2024-02-23T08:42:51;6.65;;;4.63;;
20462;SDS011;10390;53.566;9.980;2024-02-23T08:45:17;5.05;;;4.10;;
20462;SDS011;10390;53.566;9.980;2024-02-23T08:47:43;5.10;;;4.60;;
20462;SDS011;10390;53.566;9.980;2024-02-23T08:50:09;6.05;;;4.78;;
20462;SDS011;10390;53.566;9.980;2024-02-23T08:52:35;6.65;;;4.50;;
20462;SDS011;10390;53.566;9.980;2024-02-23T08:55:01;6.20;;;5.00;;
20462;SDS011;10390;53.566;9.980;2024-02-23T08:57:27;5.15;;;4.65;;
20462;SDS011;10390;53.566;9.980;2024-02-23T08:59:52;5.13;;;4.60;;
20462;SDS011;10390;53.566;9.980;2024-02-23T09:02:18;5.65;;;4.35;;
20462;SDS011;10390;53.566;9.980;2024-02-23T09:04:45;5.18;;;4.10;;
20462;SDS011;10390;53.566;9.980;2024-02-23T09:07:11;4.90;;;3.97;;
20462;SDS011;10390;53.566;9.980;2024-02-23T09:09:37;5.38;;;4.50;;
20462;SDS011;10390;53.566;9.980;2024-02-23T09:12:02;6.00;;;4.13;;
20462;SDS011;10390;53.566;9.980;2024-02-23T09:14:28;5.20;;;4.47;;
20462;SDS011;10390;53.566;9.980;2024-02-23T09:16:54;5.07;;;4.53;;
20462;SDS011;10390;53.566;9.980;2024-02-23T09:19:20;5.95;;;4.55;;
20462;SDS011;10390;53.566;9.980;2024-02-23T09:21:46;4.70;;;4.00;;
20462;SDS011;10390;53.566;9.980;2024-02-23T09:24:11;5.47;;;4.28;;
20462;SDS011;10390;53.566;9.980;2024-02-23T09:26:37;5.00;;;4.40;;
20462;SDS011;10390;53.566;9.980;2024-02-23T09:29:04;7.43;;;4.97;;
20462;SDS011;10390;53.566;9.980;2024-02-23T09:31:30;6.32;;;4.50;;
20462;SDS011;10390;53.566;9.980;2024-02-23T09:33:57;4.70;;;4.20;;
20462;SDS011;10390;53.566;9.980;2024-02-23T09:36:23;4.65;;;4.20;;
20462;SDS011;10390;53.566;9.980;2024-02-23T09:38:49;5.65;;;4.25;;
20462;SDS011;10390;53.566;9.980;2024-02-23T09:41:22;4.95;;;4.45;;
20462;SDS011;10390;53.566;9.980;2024-02-23T09:43:49;5.05;;;3.70;;
20462;SDS011;10390;53.566;9.980;2024-02-23T09:46:16;4.55;;;4.15;;
20462;SDS011;10390;53.566;9.980;2024-02-23T09:48:43;5.32;;;4.43;;
20462;SDS011;10390;53.566;9.980;2024-02-23T09:51:09;6.20;;;4.40;;
20462;SDS011;10390;53.566;9.980;2024-02-23T09:53:36;5.00;;;4.50;;
20462;SDS011;10390;53.566;9.980;2024-02-23T09:56:03;5.10;;;4.30;;
20462;SDS011;10390;53.566;9.980;2024-02-23T09:58:30;5.05;;;4.38;;
20462;SDS011;10390;53.566;9.980;2024-02-23T10:00:58;5.72;;;4.40;;
20462;SDS011;10390;53.566;9.980;2024-02-23T10:03:25;5.00;;;4.47;;
20462;SDS011;10390;53.566;9.980;2024-02-23T10:05:53;4.97;;;4.47;;
20462;SDS011;10390;53.566;9.980;2024-02-23T10:08:19;5.32;;;4.20;;
20462;SDS011;10390;53.566;9.980;2024-02-23T10:10:45;5.35;;;4.40;;
20462;SDS011;10390;53.566;9.980;2024-02-23T10:13:12;4.85;;;4.20;;
20462;SDS011;10390;53.566;9.980;2024-02-23T10:15:38;4.47;;;3.92;;
20462;SDS011;10390;53.566;9.980;2024-02-23T10:18:04;4.40;;;3.95;;
20462;SDS011;10390;53.566;9.980;2024-02-23T10:20:29;6.85;;;4.57;;
20462;SDS011;10390;53.566;9.980;2024-02-23T10:22:56;5.28;;;4.78;;
20462;SDS011;10390;53.566;9.980;2024-02-23T10:25:22;5.38;;;4.68;;
20462;SDS011;10390;53.566;9.980;2024-02-23T10:27:48;5.13;;;4.63;;
20462;SDS011;10390;53.566;9.980;2024-02-23T10:30:13;5.93;;;4.95;;
20462;SDS011;10390;53.566;9.980;2024-02-23T10:32:42;5.00;;;4.50;;
20462;SDS011;10390;53.566;9.980;2024-02-23T10:35:14;5.78;;;4.47;;
20462;SDS011;10390;53.566;9.980;2024-02-23T10:37:43;5.70;;;4.60;;
20462;SDS011;10390;53.566;9.980;2024-02-23T10:40:12;4.72;;;3.90;;
20462;SDS011;10390;53.566;9.980;2024-02-23T10:42:38;4.53;;;3.90;;
20462;SDS011;10390;53.566;9.980;2024-02-23T10:45:06;6.05;;;4.40;;
20462;SDS011;10390;53.566;9.980;2024-02-23T10:47:33;6.82;;;5.10;;
20462;SDS011;10390;53.566;9.980;2024-02-23T10:50:00;4.97;;;4.20;;
20462;SDS011;10390;53.566;9.980;2024-02-23T10:52:27;4.78;;;3.78;;
20462;SDS011;10390;53.566;9.980;2024-02-23T10:54:53;5.25;;;4.30;;
20462;SDS011;10390;53.566;9.980;2024-02-23T10:57:20;5.25;;;4.57;;
20462;SDS011;10390;53.566;9.980;2024-02-23T10:59:46;6.22;;;4.57;;
20462;SDS011;10390;53.566;9.980;2024-02-23T11:02:13;5.95;;;4.65;;
20462;SDS011;10390;53.566;9.980;2024-02-23T11:04:46;6.18;;;4.75;;
20462;SDS011;10390;53.566;9.980;2024-02-23T11:07:16;5.63;;;5.03;;
20462;SDS011;10390;53.566;9.980;2024-02-23T11:09:54;5.28;;;4.57;;
20462;SDS011;10390;53.566;9.980;2024-02-23T11:12:23;5.93;;;4.65;;
20462;SDS011;10390;53.566;9.980;2024-02-23T11:14:50;5.68;;;4.63;;
20462;SDS011;10390;53.566;9.980;2024-02-23T11:17:19;4.32;;;3.85;;
20462;SDS011;10390;53.566;9.980;2024-02-23T11:19:46;5.25;;;4.53;;
20462;SDS011;10390;53.566;9.980;2024-02-23T11:22:14;4.75;;;3.97;;
20462;SDS011;10390;53.566;9.980;2024-02-23T11:24:43;5.00;;;4.15;;
20462;SDS011;10390;53.566;9.980;2024-02-23T11:27:15;5.00;;;3.97;;
20462;SDS011;10390;53.566;9.980;2024-02-23T11:29:43;4.55;;;3.70;;
20462;SDS011;10390;53.566;9.980;2024-02-23T11:32:13;5.13;;;4.60;;
20462;SDS011;10390;53.566;9.980;2024-02-23T11:34:40;4.93;;;4.43;;
20462;SDS011;10390;53.566;9.980;2024-02-23T11:37:11;5.35;;;4.15;;
20462;SDS011;10390;53.566;9.980;2024-02-23T11:39:37;6.00;;;4.45;;
20462;SDS011;10390;53.566;9.980;2024-02-23T11:42:04;5.55;;;4.40;;
20462;SDS011;10390;53.566;9.980;2024-02-23T11:44:31;5.15;;;4.65;;
20462;SDS011;10390;53.566;9.980;2024-02-23T11:46:57;5.53;;;4.25;;
20462;SDS011;10390;53.566;9.980;2024-02-23T11:49:27;6.18;;;4.90;;
20462;SDS011;10390;53.566;9.980;2024-02-23T11:51:56;4.97;;;4.47;;
20462;SDS011;10390;53.566;9.980;2024-02-23T11:54:22;4.47;;;3.47;;
20462;SDS011;10390;53.566;9.980;2024-02-23T11:56:48;6.80;;;4.20;;
20462;SDS011;10390;53.566;9.980;2024-02-23T11:59:15;4.50;;;3.72;;
20462;SDS011;10390;53.566;9.980;2024-02-23T12:01:41;5.20;;;4.30;;
20462;SDS011;10390;53.566;9.980;2024-02-23T12:04:07;5.25;;;4.00;;
20462;SDS011;10390;53.566;9.980;2024-02-23T12:06:33;4.70;;;4.07;;
20462;SDS011;10390;53.566;9.980;2024-02-23T12:08:59;8.52;;;4.70;;
20462;SDS011;10390;53.566;9.980;2024-02-23T12:11:25;6.75;;;4.63;;
20462;SDS011;10390;53.566;9.980;2024-02-23T12:13:52;9.30;;;4.60;;
20462;SDS011;10390;53.566;9.980;2024-02-23T12:16:18;6.20;;;4.50;;
20462;SDS011;10390;53.566;9.980;2024-02-23T12:18:46;6.30;;;3.92;;
20462;SDS011;10390;53.566;9.980;2024-02-23T12:21:22;8.60;;;4.15;;
20462;SDS011;10390;53.566;9.980;2024-02-23T12:23:50;10.30;;;4.07;;
20462;SDS011;10390;53.566;9.980;2024-02-23T12:26:16;10.10;;;3.80;;
20462;SDS011;10390;53.566;9.980;2024-02-23T12:28:43;10.25;;;4.80;;
20462;SDS011;10390;53.566;9.980;2024-02-23T12:31:09;6.10;;;4.75;;
20462;SDS011;10390;53.566;9.980;2024-02-23T12:33:36;5.55;;;4.00;;
20462;SDS011;10390;53.566;9.980;2024-02-23T12:36:03;8.30;;;4.63;;
20462;SDS011;10390;53.566;9.980;2024-02-23T12:38:30;5.88;;;4.40;;
20462;SDS011;10390;53.566;9.980;2024-02-23T12:40:56;8.15;;;4.93;;
20462;SDS011;10390;53.566;9.980;2024-02-23T12:43:22;5.30;;;4.78;;
20462;SDS011;10390;53.566;9.980;2024-02-23T12:45:54;7.68;;;4.50;;
20462;SDS011;10390;53.566;9.980;2024-02-23T12:48:21;6.38;;;4.97;;
20462;SDS011;10390;53.566;9.980;2024-02-23T12:50:47;5.15;;;4.10;;
20462;SDS011;10390;53.566;9.980;2024-02-23T12:55:59;5.78;;;4.15;;
20462;SDS011;10390;53.566;9.980;2024-02-23T12:58:34;5.43;;;4.22;;
20462;SDS011;10390;53.566;9.980;2024-02-23T13:01:01;4.40;;;3.90;;
20462;SDS011;10390;53.566;9.980;2024-02-23T13:03:27;5.03;;;3.55;;
20462;SDS011;10390;53.566;9.980;2024-02-23T13:05:54;5.45;;;3.90;;
20462;SDS011;10390;53.566;9.980;2024-02-23T13:08:21;7.32;;;4.38;;
20462;SDS011;10390;53.566;9.980;2024-02-23T13:10:47;5.07;;;4.07;;
20462;SDS011;10390;53.566;9.980;2024-02-23T13:13:13;5.28;;;4.20;;
20462;SDS011;10390;53.566;9.980;2024-02-23T13:15:40;5.78;;;4.20;;
20462;SDS011;10390;53.566;9.980;2024-02-23T13:18:08;5.95;;;4.03;;
20462;SDS011;10390;53.566;9.980;2024-02-23T13:20:34;6.00;;;4.35;;
20462;SDS011;10390;53.566;9.980;2024-02-23T13:23:00;5.43;;;4.00;;
20462;SDS011;10390;53.566;9.980;2024-02-23T13:25:26;5.30;;;4.72;;
20462;SDS011;10390;53.566;9.980;2024-02-23T13:27:52;4.55;;;3.95;;
20462;SDS011;10390;53.566;9.980;2024-02-23T13:30:17;5.22;;;3.92;;
20462;SDS011;10390;53.566;9.980;2024-02-23T13:32:43;5.47;;;4.10;;
20462;SDS011;10390;53.566;9.980;2024-02-23T13:35:09;6.18;;;4.40;;
20462;SDS011;10390;53.566;9.980;2024-02-23T13:37:34;6.18;;;3.92;;
20462;SDS011;10390;53.566;9.980;2024-02-23T13:40:00;4.55;;;3.88;;
20462;SDS011;10390;53.566;9.980;2024-02-23T13:42:26;6.03;;;4.68;;
20462;SDS011;10390;53.566;9.980;2024-02-23T13:44:52;5.10;;;4.05;;
20462;SDS011;10390;53.566;9.980;2024-02-23T13:47:17;4.68;;;4.05;;
20462;SDS011;10390;53.566;9.980;2024-02-23T13:49:43;5.35;;;3.90;;
20462;SDS011;10390;53.566;9.980;2024-02-23T13:52:09;5.13;;;4.57;;
20462;SDS011;10390;53.566;9.980;2024-02-23T13:54:34;5.20;;;4.70;;
20462;SDS011;10390;53.566;9.980;2024-02-23T13:57:00;5.63;;;4.65;;
20462;SDS011;10390;53.566;9.980;2024-02-23T13:59:26;5.97;;;4.00;;
20462;SDS011;10390;53.566;9.980;2024-02-23T14:01:51;4.95;;;4.40;;
20462;SDS011;10390;53.566;9.980;2024-02-23T14:04:18;6.22;;;4.30;;
20462;SDS011;10390;53.566;9.980;2024-02-23T14:06:43;6.28;;;4.13;;
20462;SDS011;10390;53.566;9.980;2024-02-23T14:09:09;9.02;;;4.25;;
20462;SDS011;10390;53.566;9.980;2024-02-23T14:11:35;6.15;;;4.03;;
20462;SDS011;10390;53.566;9.980;2024-02-23T14:14:01;6.30;;;4.25;;
20462;SDS011;10390;53.566;9.980;2024-02-23T14:16:28;5.97;;;4.20;;
20462;SDS011;10390;53.566;9.980;2024-02-23T14:18:53;4.65;;;3.85;;
20462;SDS011;10390;53.566;9.980;2024-02-23T14:21:20;4.57;;;3.67;;
20462;SDS011;10390;53.566;9.980;2024-02-23T14:23:47;6.20;;;4.70;;
20462;SDS011;10390;53.566;9.980;2024-02-23T14:26:13;5.03;;;4.40;;
20462;SDS011;10390;53.566;9.980;2024-02-23T14:28:39;5.50;;;4.78;;
20462;SDS011;10390;53.566;9.980;2024-02-23T14:31:06;6.28;;;4.68;;
20462;SDS011;10390;53.566;9.980;2024-02-23T14:33:31;5.10;;;4.50;;
20462;SDS011;10390;53.566;9.980;2024-02-23T14:35:57;5.45;;;4.60;;
20462;SDS011;10390;53.566;9.980;2024-02-23T14:38:23;6.13;;;4.80;;
20462;SDS011;10390;53.566;9.980;2024-02-23T14:40:49;6.13;;;5.05;;
20462;SDS011;10390;53.566;9.980;2024-02-23T14:43:15;6.65;;;4.80;;
20462;SDS011;10390;53.566;9.980;2024-02-23T14:45:41;5.82;;;5.10;;